createdAt,value
2023-11-23T00:04:42.168Z,4.57
2023-11-23T00:07:54.397Z,3.93
2023-11-23T00:11:06.409Z,4.57
2023-11-23T00:14:18.258Z,4.33
2023-11-23T00:17:31.927Z,3.73
2023-11-23T00:20:26.678Z,3.80
2023-11-23T00:23:29.390Z,3.50
2023-11-23T00:26:35.344Z,3.60
2023-11-23T00:29:30.550Z,3.13
2023-11-23T00:32:42.391Z,3.73
2023-11-23T00:35:45.499Z,3.30
2023-11-23T00:38:57.217Z,3.63
2023-11-23T00:41:54.682Z,2.83
2023-11-23T00:44:49.108Z,2.87
2023-11-23T00:47:21.222Z,2.87
2023-11-23T00:49:52.678Z,3.07
2023-11-23T00:52:26.727Z,2.87
2023-11-23T00:55:30.030Z,3.40
2023-11-23T00:58:42.021Z,3.23
2023-11-23T01:01:55.757Z,2.70
2023-11-23T01:04:51.111Z,2.97
2023-11-23T01:07:22.375Z,2.93
2023-11-23T01:10:18.421Z,2.97
2023-11-23T01:13:14.489Z,3.03
2023-11-23T01:16:28.073Z,2.77
2023-11-23T01:19:21.902Z,3.47
2023-11-23T01:22:33.671Z,2.57
2023-11-23T01:25:48.819Z,3.40
2023-11-23T01:28:53.360Z,2.60
2023-11-23T01:32:05.393Z,3.03
2023-11-23T01:35:11.929Z,2.80
2023-11-23T01:38:24.343Z,2.60
2023-11-23T01:41:30.261Z,2.90
2023-11-23T01:47:17.879Z,3.17
2023-11-23T01:50:15.146Z,2.20
2023-11-23T01:53:17.576Z,2.90
2023-11-23T01:56:12.799Z,2.63
2023-11-23T01:58:44.971Z,2.73
2023-11-23T02:01:57.279Z,3.03
2023-11-23T02:05:14.564Z,3.03
2023-11-23T02:08:25.432Z,2.47
2023-11-23T02:11:37.541Z,3.00
2023-11-23T02:14:21.500Z,2.77
2023-11-23T02:17:35.996Z,2.90
2023-11-23T02:20:50.951Z,3.07
2023-11-23T02:24:03.226Z,2.63
2023-11-23T02:26:58.975Z,2.43
2023-11-23T02:29:53.733Z,2.80
2023-11-23T02:32:54.782Z,2.67
2023-11-23T02:35:29.352Z,2.30
2023-11-23T02:38:53.810Z,2.10
2023-11-23T02:41:57.990Z,2.80
2023-11-23T02:44:52.882Z,2.70
2023-11-23T02:47:58.614Z,2.33
2023-11-23T02:51:00.508Z,3.13
2023-11-23T02:53:34.237Z,2.60
2023-11-23T02:56:46.848Z,2.10
2023-11-23T03:02:30.832Z,3.50
2023-11-23T03:05:35.553Z,2.50
2023-11-23T03:08:27.204Z,2.70
2023-11-23T03:11:23.057Z,2.97
2023-11-23T03:14:17.624Z,2.97
2023-11-23T03:17:12.401Z,3.03
2023-11-23T03:20:27.159Z,2.63
2023-11-23T03:23:38.857Z,3.33
2023-11-23T03:26:31.942Z,2.93
2023-11-23T03:29:32.616Z,3.00
2023-11-23T03:32:26.839Z,3.17
2023-11-23T03:35:13.551Z,3.27
2023-11-23T03:38:28.193Z,2.87
2023-11-23T03:41:40.055Z,3.23
2023-11-23T03:44:33.265Z,3.43
2023-11-23T03:47:29.809Z,3.50
2023-11-23T03:50:40.426Z,3.10
2023-11-23T03:53:30.552Z,3.60
2023-11-23T03:56:42.371Z,2.40
2023-11-23T03:59:33.989Z,3.47
2023-11-23T04:02:45.797Z,4.00
2023-11-23T04:05:41.282Z,3.40
2023-11-23T04:08:55.865Z,3.47
2023-11-23T04:12:00.320Z,3.63
2023-11-23T04:14:57.731Z,4.07
2023-11-23T04:17:51.930Z,3.43
2023-11-23T04:21:03.974Z,4.20
2023-11-23T04:23:48.621Z,4.47
2023-11-23T04:26:54.407Z,4.63
2023-11-23T04:29:49.537Z,5.13
2023-11-23T04:33:02.817Z,5.50
2023-11-23T04:35:47.329Z,6.07
2023-11-23T04:38:57.833Z,5.40
2023-11-23T04:42:03.922Z,5.00
2023-11-23T04:45:15.866Z,6.37
2023-11-23T04:48:27.856Z,5.93
2023-11-23T04:51:11.611Z,6.13
2023-11-23T04:54:23.495Z,6.57
2023-11-23T04:57:12.976Z,6.23
2023-11-23T05:00:26.462Z,6.13
2023-11-23T05:03:32.968Z,6.50
2023-11-23T05:06:08.671Z,7.37
2023-11-23T05:09:20.490Z,7.50
2023-11-23T05:14:59.118Z,8.13
2023-11-23T05:17:53.098Z,8.83
2023-11-23T05:21:05.920Z,6.93
2023-11-23T05:24:03.737Z,7.13
2023-11-23T05:27:16.650Z,8.57
2023-11-23T05:30:34.043Z,8.20
2023-11-23T05:33:48.494Z,7.60
2023-11-23T05:37:00.313Z,8.03
2023-11-23T05:42:57.565Z,7.70
2023-11-23T05:46:15.462Z,6.57
2023-11-23T05:49:07.866Z,7.43
2023-11-23T05:51:59.709Z,9.10
2023-11-23T05:55:12.824Z,8.57
2023-11-23T05:58:27.420Z,8.73
2023-11-23T06:01:39.141Z,8.00
2023-11-23T06:04:31.106Z,8.23
2023-11-23T06:07:43.462Z,10.03
2023-11-23T06:10:35.515Z,7.10
2023-11-23T06:13:50.369Z,8.60
2023-11-23T06:17:02.438Z,8.87
2023-11-23T06:20:03.138Z,8.40
2023-11-23T06:23:15.013Z,8.30
2023-11-23T06:26:33.273Z,9.23
2023-11-23T06:29:46.205Z,8.27
2023-11-23T06:32:50.482Z,8.33
2023-11-23T06:35:34.762Z,8.80
2023-11-23T06:38:22.835Z,8.27
2023-11-23T06:41:34.672Z,9.03
2023-11-23T06:44:17.035Z,9.13
2023-11-23T06:47:11.542Z,7.53
2023-11-23T06:50:23.426Z,7.07
2023-11-23T06:53:36.730Z,9.00
2023-11-23T06:56:14.399Z,8.33
2023-11-23T06:58:48.183Z,8.37
2023-11-23T07:02:00.267Z,7.80
2023-11-23T07:05:15.486Z,8.87
2023-11-23T07:08:10.761Z,8.53
2023-11-23T07:11:14.503Z,9.50
2023-11-23T07:14:26.207Z,8.97
2023-11-23T07:20:16.452Z,8.33
2023-11-23T07:23:28.949Z,8.50
2023-11-23T07:26:40.909Z,9.27
2023-11-23T07:29:52.735Z,7.67
2023-11-23T07:33:04.668Z,7.53
2023-11-23T07:38:50.950Z,8.37
2023-11-23T07:41:45.437Z,8.27
2023-11-23T07:44:57.357Z,9.03
2023-11-23T07:47:49.120Z,8.27
2023-11-23T07:51:01.600Z,8.03
2023-11-23T07:54:00.921Z,7.20
2023-11-23T07:57:12.865Z,7.23
2023-11-23T08:00:29.791Z,7.90
2023-11-23T08:03:31.817Z,7.03
2023-11-23T08:06:43.929Z,7.37
2023-11-23T08:09:40.885Z,7.67
2023-11-23T08:12:15.173Z,7.97
2023-11-23T08:15:03.790Z,7.40
2023-11-23T08:18:15.778Z,7.07
2023-11-23T08:21:26.762Z,7.50
2023-11-23T08:24:28.344Z,8.00
2023-11-23T08:27:39.397Z,7.83
2023-11-23T08:30:41.587Z,8.10
2023-11-23T08:33:53.612Z,7.90
2023-11-23T08:36:48.794Z,7.80
2023-11-23T08:39:21.951Z,7.83
2023-11-23T08:41:54.213Z,7.77
2023-11-23T08:45:10.881Z,7.83
2023-11-23T08:48:23.970Z,8.07
2023-11-23T08:51:25.637Z,7.63
2023-11-23T08:54:37.790Z,7.57
2023-11-23T08:57:52.558Z,7.50
2023-11-23T09:01:07.237Z,7.37
2023-11-23T09:04:10.376Z,7.93
2023-11-23T09:06:44.263Z,8.10
2023-11-23T09:09:38.857Z,7.17
2023-11-23T09:12:50.538Z,8.17
2023-11-23T09:16:02.550Z,7.93
2023-11-23T09:19:18.332Z,7.80
2023-11-23T09:22:30.381Z,6.87
2023-11-23T09:25:42.159Z,8.07
2023-11-23T09:28:14.351Z,8.13
2023-11-23T09:30:45.709Z,8.20
2023-11-23T09:33:20.775Z,7.73
2023-11-23T09:36:16.232Z,7.30
2023-11-23T09:38:53.327Z,8.50
2023-11-23T09:41:26.735Z,8.47
2023-11-23T09:44:21.185Z,7.83
2023-11-23T09:47:22.277Z,6.63
2023-11-23T09:50:24.184Z,6.33
2023-11-23T09:56:13.049Z,6.07
2023-11-23T09:59:25.278Z,5.20
2023-11-23T10:02:39.035Z,5.07
2023-11-23T10:05:21.569Z,4.43
2023-11-23T10:08:34.747Z,4.60
2023-11-23T10:11:42.483Z,3.85
2023-11-23T10:14:57.390Z,3.30
2023-11-23T10:17:49.435Z,3.80
2023-11-23T10:20:41.484Z,4.68
2023-11-23T10:23:53.395Z,4.40
2023-11-23T10:27:00.185Z,3.47
2023-11-23T10:30:13.707Z,4.80
2023-11-23T10:33:13.493Z,3.55
2023-11-23T10:36:29.062Z,4.93
2023-11-23T10:39:41.887Z,5.05
2023-11-23T10:42:57.246Z,5.15
2023-11-23T10:46:13.385Z,5.90
2023-11-23T10:49:06.245Z,5.28
2023-11-23T10:52:21.944Z,4.82
2023-11-23T10:55:26.066Z,5.43
2023-11-23T10:58:24.518Z,4.97
2023-11-23T11:01:38.480Z,5.25
2023-11-23T11:04:21.876Z,5.63
2023-11-23T11:07:01.345Z,4.63
2023-11-23T11:10:14.112Z,5.28
2023-11-23T11:13:15.628Z,4.57
2023-11-23T11:16:05.122Z,4.97
2023-11-23T11:18:58.321Z,5.88
2023-11-23T11:21:52.440Z,4.75
2023-11-23T11:24:47.424Z,5.47
2023-11-23T11:27:59.376Z,4.07
2023-11-23T11:31:15.466Z,4.63
2023-11-23T11:34:28.505Z,5.35
2023-11-23T11:37:44.677Z,5.35
2023-11-23T11:40:39.137Z,5.07
2023-11-23T11:43:40.943Z,5.70
2023-11-23T11:46:55.514Z,4.57
2023-11-23T11:49:54.705Z,5.18
2023-11-23T11:52:54.191Z,6.20
2023-11-23T11:55:37.799Z,6.82
2023-11-23T11:58:09.459Z,5.35
2023-11-23T12:01:01.181Z,5.43
2023-11-23T12:03:43.098Z,6.05
2023-11-23T12:06:46.520Z,5.45
2023-11-23T12:09:46.268Z,5.47
2023-11-23T12:12:59.144Z,4.63
2023-11-23T12:15:58.182Z,5.03
2023-11-23T12:18:56.250Z,8.63
2023-11-23T12:21:32.391Z,4.50
2023-11-23T12:24:12.742Z,5.63
2023-11-23T12:27:10.461Z,3.88
2023-11-23T12:29:55.711Z,4.72
2023-11-23T12:32:39.290Z,4.47
2023-11-23T12:35:14.627Z,5.75
2023-11-23T12:38:15.943Z,5.95
2023-11-23T12:40:48.051Z,6.40
2023-11-23T12:43:19.675Z,5.95
2023-11-23T12:45:51.382Z,5.90
2023-11-23T12:48:23.022Z,6.05
2023-11-23T12:51:37.720Z,5.88
2023-11-23T12:54:21.481Z,7.18
2023-11-23T12:57:13.877Z,6.93
2023-11-23T13:00:07.663Z,6.45
2023-11-23T13:02:54.087Z,7.70
2023-11-23T13:05:28.060Z,7.20
2023-11-23T13:08:14.028Z,6.57
2023-11-23T13:10:59.324Z,6.35
2023-11-23T13:13:36.608Z,8.25
2023-11-23T13:16:19.057Z,6.97
2023-11-23T13:19:30.205Z,8.00
2023-11-23T13:22:09.237Z,7.78
2023-11-23T13:25:18.313Z,6.82
2023-11-23T13:28:11.930Z,7.32
2023-11-23T13:30:44.628Z,6.63
2023-11-23T13:33:40.655Z,6.60
2023-11-23T13:36:29.735Z,7.50
2023-11-23T13:39:23.248Z,6.70
2023-11-23T13:42:38.525Z,8.02
2023-11-23T13:45:51.246Z,7.95
2023-11-23T13:49:04.585Z,7.90
2023-11-23T13:52:14.952Z,7.82
2023-11-23T13:58:01.066Z,8.52
2023-11-23T14:01:15.682Z,8.40
2023-11-23T14:04:27.941Z,8.00
2023-11-23T14:07:40.896Z,8.93
2023-11-23T14:10:46.293Z,8.15
2023-11-23T14:14:01.972Z,6.80
2023-11-23T14:17:15.250Z,7.65
2023-11-23T14:20:27.848Z,7.10
2023-11-23T14:23:19.779Z,8.98
2023-11-23T14:26:16.441Z,9.05
2023-11-23T14:28:49.172Z,8.52
2023-11-23T14:31:56.847Z,9.43
2023-11-23T14:34:48.473Z,10.15
2023-11-23T14:37:22.578Z,7.60
2023-11-23T14:40:29.542Z,8.57
2023-11-23T14:43:41.731Z,11.02
2023-11-23T14:46:56.492Z,10.50
2023-11-23T14:50:10.332Z,11.57
2023-11-23T14:52:48.941Z,11.85
2023-11-23T14:55:47.049Z,14.07
2023-11-23T14:58:59.592Z,13.07
2023-11-23T15:01:43.765Z,12.95
2023-11-23T15:04:59.648Z,12.20
2023-11-23T15:07:59.542Z,12.27
2023-11-23T15:11:11.855Z,14.13
2023-11-23T15:14:29.687Z,14.77
2023-11-23T15:17:22.074Z,13.27
2023-11-23T15:20:28.190Z,13.15
2023-11-23T15:23:24.016Z,12.95
2023-11-23T15:25:55.847Z,13.00
2023-11-23T15:28:47.569Z,10.80
2023-11-23T15:31:33.277Z,13.90
2023-11-23T15:34:46.039Z,13.43
2023-11-23T15:37:44.003Z,11.27
2023-11-23T15:40:56.556Z,12.07
2023-11-23T15:43:37.453Z,10.90
2023-11-23T15:46:50.651Z,10.73
2023-11-23T15:49:51.549Z,12.02
2023-11-23T15:52:55.328Z,10.10
2023-11-23T15:56:07.310Z,9.75
2023-11-23T15:59:00.573Z,8.50
2023-11-23T16:02:17.098Z,9.20
2023-11-23T16:04:58.409Z,7.15
2023-11-23T16:08:14.260Z,8.07
2023-11-23T16:11:06.125Z,7.65
2023-11-23T16:14:18.651Z,7.72
2023-11-23T16:16:58.031Z,7.15
2023-11-23T16:20:12.767Z,7.63
2023-11-23T16:23:28.192Z,6.18
2023-11-23T16:26:29.449Z,6.22
2023-11-23T16:29:41.408Z,5.03
2023-11-23T16:32:46.994Z,4.82
2023-11-23T16:35:39.020Z,5.20
2023-11-23T16:38:36.140Z,4.55
2023-11-23T16:41:48.151Z,4.18
2023-11-23T16:44:19.956Z,4.55
2023-11-23T16:47:21.662Z,4.35
2023-11-23T16:50:33.745Z,4.45
2023-11-23T16:53:48.920Z,4.50
2023-11-23T16:56:52.561Z,4.70
2023-11-23T16:59:28.194Z,4.00
2023-11-23T17:02:00.116Z,4.63
2023-11-23T17:05:15.790Z,5.22
2023-11-23T17:08:01.499Z,6.07
2023-11-23T17:10:36.286Z,5.25
2023-11-23T17:13:10.777Z,5.03
2023-11-23T17:16:21.571Z,5.40
2023-11-23T17:18:53.051Z,5.15
2023-11-23T17:21:49.019Z,5.68
2023-11-23T17:24:32.627Z,4.50
2023-11-23T17:27:07.509Z,4.10
2023-11-23T17:30:02.178Z,5.70
2023-11-23T17:32:54.379Z,6.30
2023-11-23T17:36:06.924Z,6.35
2023-11-23T17:39:17.281Z,5.45
2023-11-23T17:42:32.288Z,4.78
2023-11-23T17:45:48.981Z,4.05
2023-11-23T17:48:46.382Z,3.75
2023-11-23T17:51:58.561Z,4.95
2023-11-23T17:55:12.335Z,4.72
2023-11-23T17:58:11.345Z,4.57
2023-11-23T18:01:14.513Z,3.92
2023-11-23T18:04:16.975Z,6.38
2023-11-23T18:07:09.083Z,3.95
2023-11-23T18:10:21.812Z,5.25
2023-11-23T18:13:13.337Z,5.70
2023-11-23T18:15:50.014Z,6.70
2023-11-23T18:19:02.978Z,8.93
2023-11-23T18:22:15.791Z,14.85
2023-11-23T18:25:26.437Z,4.63
2023-11-23T18:28:41.033Z,3.15
2023-11-23T18:31:53.998Z,5.18
2023-11-23T18:34:26.343Z,4.07
2023-11-23T18:37:39.209Z,3.25
2023-11-23T18:40:18.414Z,5.03
2023-11-23T18:42:54.919Z,4.45
2023-11-23T18:45:53.624Z,5.50
2023-11-23T18:49:06.456Z,2.53
2023-11-23T18:52:05.835Z,4.00
2023-11-23T18:54:57.487Z,3.58
2023-11-23T18:57:42.864Z,6.22
2023-11-23T19:00:16.445Z,3.72
2023-11-23T19:03:20.276Z,1.42
2023-11-23T19:06:15.309Z,1.88
2023-11-23T19:08:48.925Z,2.83
2023-11-23T19:11:24.234Z,2.70
2023-11-23T19:14:38.872Z,1.65
2023-11-23T19:18:00.478Z,1.65
2023-11-23T19:21:10.496Z,1.40
2023-11-23T19:24:25.009Z,1.42
2023-11-23T19:27:34.003Z,1.27
2023-11-23T19:30:48.048Z,1.00
2023-11-23T19:33:33.281Z,0.77
2023-11-23T19:36:42.937Z,0.77
2023-11-23T19:39:32.001Z,1.40
2023-11-23T19:42:11.346Z,1.00
2023-11-23T19:45:10.375Z,0.90
2023-11-23T19:47:48.385Z,0.82
2023-11-23T19:50:26.495Z,0.57
2023-11-23T19:53:05.687Z,0.50
2023-11-23T19:55:57.470Z,0.70
2023-11-23T19:58:31.899Z,0.60
2023-11-23T20:01:20.440Z,0.60
2023-11-23T20:03:55.451Z,0.70
2023-11-23T20:06:32.683Z,0.70
2023-11-23T20:09:26.040Z,0.40
2023-11-23T20:12:00.678Z,0.50
2023-11-23T20:14:35.954Z,0.97
2023-11-23T20:17:11.801Z,0.80
2023-11-23T20:19:45.073Z,0.70
2023-11-23T20:22:23.259Z,1.33
2023-11-23T20:25:05.405Z,1.10
2023-11-23T20:27:41.341Z,0.97
2023-11-23T20:30:33.175Z,1.57
2023-11-23T20:33:10.007Z,1.37
2023-11-23T20:35:52.840Z,1.93
2023-11-23T20:39:05.023Z,2.00
2023-11-23T20:42:02.002Z,2.27
2023-11-23T20:44:58.245Z,2.43
2023-11-23T20:47:32.500Z,2.03
2023-11-23T20:50:24.277Z,2.30
2023-11-23T20:52:58.939Z,2.53
2023-11-23T20:55:31.816Z,1.90
2023-11-23T20:58:32.040Z,2.80
2023-11-23T21:01:08.053Z,2.60
2023-11-23T21:04:04.448Z,2.00
2023-11-23T21:07:11.428Z,1.83
2023-11-23T21:09:45.779Z,2.00
2023-11-23T21:12:25.022Z,2.23
2023-11-23T21:15:02.498Z,2.20
2023-11-23T21:17:38.209Z,2.10
2023-11-23T21:20:15.250Z,1.80
2023-11-23T21:22:50.018Z,2.30
2023-11-23T21:25:21.843Z,3.07
2023-11-23T21:28:07.386Z,1.67
2023-11-23T21:31:06.447Z,2.60
2023-11-23T21:33:41.515Z,2.77
2023-11-23T21:36:13.405Z,3.07
2023-11-23T21:38:45.994Z,2.40
2023-11-23T21:41:26.522Z,3.47
2023-11-23T21:43:58.478Z,3.10
2023-11-23T21:46:32.847Z,2.97
2023-11-23T21:49:04.610Z,2.53
2023-11-23T21:51:39.787Z,2.67
2023-11-23T21:54:14.496Z,3.60
2023-11-23T21:56:46.343Z,3.43
2023-11-23T21:59:19.092Z,2.27
2023-11-23T22:01:53.517Z,3.00
2023-11-23T22:04:34.415Z,2.43
2023-11-23T22:07:09.163Z,2.50
2023-11-23T22:09:54.497Z,3.63
2023-11-23T22:12:37.357Z,2.50
2023-11-23T22:15:10.881Z,3.70
2023-11-23T22:17:47.548Z,2.53
2023-11-23T22:20:24.261Z,1.73
2023-11-23T22:22:56.793Z,2.47
2023-11-23T22:25:34.518Z,2.27
2023-11-23T22:28:11.616Z,1.87
2023-11-23T22:30:45.339Z,2.07
2023-11-23T22:33:21.505Z,2.60
2023-11-23T22:36:34.475Z,2.87
2023-11-23T22:39:10.687Z,2.73
2023-11-23T22:41:44.829Z,2.87
2023-11-23T22:44:37.411Z,2.53
2023-11-23T22:47:13.501Z,3.47
2023-11-23T22:49:52.090Z,2.87
2023-11-23T22:52:23.970Z,2.40
2023-11-23T22:54:55.621Z,2.67
2023-11-23T22:57:27.995Z,2.57
2023-11-23T23:00:02.053Z,2.80
2023-11-23T23:02:34.662Z,3.60
2023-11-23T23:05:32.322Z,3.37
2023-11-23T23:08:04.587Z,3.23
2023-11-23T23:10:41.581Z,2.50
2023-11-23T23:13:14.599Z,2.57
2023-11-23T23:15:46.968Z,1.77
2023-11-23T23:18:18.990Z,2.17
2023-11-23T23:20:53.513Z,2.10
2023-11-23T23:23:28.255Z,2.37
2023-11-23T23:26:07.195Z,3.93
2023-11-23T23:28:39.072Z,2.23
2023-11-23T23:31:10.708Z,2.03
2023-11-23T23:33:42.475Z,2.47
2023-11-23T23:36:22.189Z,2.53
2023-11-23T23:38:56.763Z,2.40
2023-11-23T23:41:36.155Z,2.00
2023-11-23T23:44:07.891Z,2.73
2023-11-23T23:46:39.677Z,2.23
2023-11-23T23:49:14.551Z,3.90
2023-11-23T23:51:48.974Z,2.97
2023-11-23T23:54:23.930Z,2.30
2023-11-23T23:56:59.171Z,2.27
2023-11-23T23:59:31.435Z,2.73
